createdAt,value
2019-01-25T00:00:24.225Z,41.73
2019-01-25T00:02:52.624Z,39.63
2019-01-25T00:05:21.015Z,43.43
2019-01-25T00:07:49.402Z,45.73
2019-01-25T00:10:17.831Z,42.77
2019-01-25T00:12:46.211Z,42.73
2019-01-25T00:15:14.599Z,39.87
2019-01-25T00:17:42.989Z,45.20
2019-01-25T00:20:14.611Z,42.23
2019-01-25T00:22:42.964Z,39.67
2019-01-25T00:25:11.371Z,42.50
2019-01-25T00:27:39.701Z,36.40
2019-01-25T00:30:15.792Z,37.57
2019-01-25T00:32:44.175Z,36.67
2019-01-25T00:35:12.570Z,36.27
2019-01-25T00:37:40.929Z,35.73
2019-01-25T00:40:12.369Z,36.20
2019-01-25T00:42:40.651Z,32.73
2019-01-25T00:45:10.618Z,39.00
2019-01-25T00:47:38.993Z,39.27
2019-01-25T00:50:16.257Z,36.07
2019-01-25T00:52:44.609Z,34.83
2019-01-25T00:55:13.105Z,37.13
2019-01-25T00:57:41.459Z,36.90
2019-01-25T01:00:15.728Z,41.57
2019-01-25T01:02:44.055Z,37.67
2019-01-25T01:05:12.525Z,38.37
2019-01-25T01:07:40.856Z,40.77
2019-01-25T01:10:14.250Z,41.20
2019-01-25T01:12:41.069Z,38.57
2019-01-25T01:15:12.287Z,36.83
2019-01-25T01:17:40.725Z,38.57
2019-01-25T01:20:11.707Z,40.97
2019-01-25T01:22:40.040Z,38.63
2019-01-25T01:25:09.206Z,43.20
2019-01-25T01:27:37.557Z,41.47
2019-01-25T01:30:11.904Z,38.37
2019-01-25T01:32:40.304Z,35.07
2019-01-25T01:35:08.684Z,37.60
2019-01-25T01:37:37.007Z,34.83
2019-01-25T01:40:08.770Z,35.80
2019-01-25T01:42:37.105Z,34.37
2019-01-25T01:45:07.404Z,36.67
2019-01-25T01:47:35.845Z,35.37
2019-01-25T01:50:07.159Z,37.57
2019-01-25T01:52:35.548Z,36.33
2019-01-25T01:55:04.880Z,35.70
2019-01-25T01:57:33.240Z,36.90
2019-01-25T02:00:01.600Z,40.67
2019-01-25T02:02:29.923Z,35.63
2019-01-25T02:04:58.322Z,36.70
2019-01-25T02:07:26.780Z,40.43
2019-01-25T02:09:55.167Z,39.00
2019-01-25T02:12:23.607Z,41.07
2019-01-25T02:14:51.981Z,35.13
2019-01-25T02:17:20.278Z,35.57
2019-01-25T02:19:48.588Z,34.17
2019-01-25T02:22:16.948Z,35.70
2019-01-25T02:24:45.319Z,34.60
2019-01-25T02:27:13.656Z,36.50
2019-01-25T02:29:42.024Z,36.73
2019-01-25T02:32:10.348Z,34.23
2019-01-25T02:34:38.812Z,39.50
2019-01-25T02:37:07.129Z,33.47
2019-01-25T02:39:35.511Z,37.63
2019-01-25T02:42:03.807Z,34.80
2019-01-25T02:44:32.229Z,32.40
2019-01-25T02:47:00.586Z,34.03
2019-01-25T02:49:28.985Z,42.37
2019-01-25T02:51:57.554Z,42.87
2019-01-25T02:54:25.982Z,43.87
2019-01-25T02:56:54.523Z,40.90
2019-01-25T02:59:22.937Z,35.77
2019-01-25T03:01:51.304Z,35.30
2019-01-25T03:04:19.788Z,40.27
2019-01-25T03:06:48.206Z,34.40
2019-01-25T03:09:16.581Z,38.07
2019-01-25T03:11:44.997Z,33.50
2019-01-25T03:14:13.398Z,37.05
2019-01-25T03:16:41.777Z,41.53
2019-01-25T03:19:10.216Z,41.40
2019-01-25T03:21:38.541Z,40.77
2019-01-25T03:24:06.921Z,32.53
2019-01-25T03:26:35.367Z,34.90
2019-01-25T03:29:03.824Z,36.08
2019-01-25T03:31:32.271Z,35.00
2019-01-25T03:34:00.678Z,34.93
2019-01-25T03:36:29.095Z,37.80
2019-01-25T03:38:57.468Z,36.13
2019-01-25T03:41:25.861Z,38.97
2019-01-25T03:43:54.233Z,35.37
2019-01-25T03:46:22.566Z,40.67
2019-01-25T03:48:51.047Z,38.43
2019-01-25T03:51:19.420Z,41.80
2019-01-25T03:53:47.774Z,39.37
2019-01-25T03:56:16.086Z,38.07
2019-01-25T03:58:44.556Z,33.33
2019-01-25T04:01:12.906Z,33.37
2019-01-25T04:03:41.311Z,32.70
2019-01-25T04:06:09.705Z,34.27
2019-01-25T04:08:38.099Z,37.58
2019-01-25T04:11:06.482Z,40.60
2019-01-25T04:13:34.909Z,41.07
2019-01-25T04:16:03.289Z,39.87
2019-01-25T04:18:31.702Z,34.43
2019-01-25T04:21:00.093Z,35.83
2019-01-25T04:23:29.446Z,35.10
2019-01-25T04:25:57.815Z,34.45
2019-01-25T04:28:26.137Z,39.57
2019-01-25T04:30:54.430Z,34.83
2019-01-25T04:33:22.745Z,33.50
2019-01-25T04:35:51.282Z,35.00
2019-01-25T04:38:19.630Z,33.18
2019-01-25T04:40:48.026Z,35.63
2019-01-25T04:43:16.421Z,36.85
2019-01-25T04:45:44.777Z,35.13
2019-01-25T04:48:13.791Z,29.15
2019-01-25T04:50:42.194Z,35.60
2019-01-25T04:53:10.653Z,37.00
2019-01-25T04:55:39.061Z,35.25
2019-01-25T04:58:12.443Z,32.13
2019-01-25T05:00:40.838Z,33.30
2019-01-25T05:03:09.235Z,34.80
2019-01-25T05:05:37.627Z,37.67
2019-01-25T05:08:11.028Z,34.93
2019-01-25T05:10:39.492Z,33.95
2019-01-25T05:13:07.869Z,36.83
2019-01-25T05:15:36.177Z,35.58
2019-01-25T05:18:04.897Z,36.03
2019-01-25T05:20:33.295Z,32.13
2019-01-25T05:23:03.372Z,33.08
2019-01-25T05:25:31.752Z,30.73
2019-01-25T05:28:09.833Z,30.25
2019-01-25T05:30:38.304Z,28.45
2019-01-25T05:33:06.745Z,30.57
2019-01-25T05:35:36.352Z,37.13
2019-01-25T05:38:04.816Z,34.80
2019-01-25T05:40:33.311Z,31.00
2019-01-25T05:43:01.743Z,34.00
2019-01-25T05:45:30.101Z,31.73
2019-01-25T05:47:58.527Z,35.83
2019-01-25T05:50:26.889Z,31.90
2019-01-25T05:52:55.219Z,32.73
2019-01-25T05:55:23.711Z,31.67
2019-01-25T05:57:56.861Z,31.70
2019-01-25T06:00:26.884Z,30.20
2019-01-25T06:02:55.188Z,30.13
2019-01-25T06:05:23.489Z,35.90
2019-01-25T06:07:51.881Z,35.40
2019-01-25T06:10:20.285Z,29.67
2019-01-25T06:12:51.912Z,34.10
2019-01-25T06:15:20.252Z,35.85
2019-01-25T06:17:48.734Z,31.83
2019-01-25T06:20:17.006Z,34.83
2019-01-25T06:22:45.362Z,33.23
2019-01-25T06:25:13.777Z,34.15
2019-01-25T06:27:42.218Z,30.32
2019-01-25T06:30:14.580Z,33.80
2019-01-25T06:32:42.969Z,29.42
2019-01-25T06:35:12.228Z,34.88
2019-01-25T06:37:40.593Z,31.33
2019-01-25T06:40:15.953Z,33.37
2019-01-25T06:42:44.356Z,31.60
2019-01-25T06:45:12.847Z,33.30
2019-01-25T06:47:41.177Z,35.58
2019-01-25T06:50:11.517Z,31.93
2019-01-25T06:52:39.796Z,34.35
2019-01-25T06:55:08.445Z,32.53
2019-01-25T06:57:44.246Z,32.80
2019-01-25T07:00:16.827Z,29.48
2019-01-25T07:02:45.225Z,32.93
2019-01-25T07:05:13.633Z,32.10
2019-01-25T07:07:43.088Z,30.15
2019-01-25T07:10:14.224Z,31.27
2019-01-25T07:12:42.607Z,29.75
2019-01-25T07:15:12.620Z,29.60
2019-01-25T07:17:41.016Z,27.93
2019-01-25T07:20:12.253Z,31.50
2019-01-25T07:22:40.832Z,30.75
2019-01-25T07:25:13.998Z,30.23
2019-01-25T07:27:42.331Z,30.83
2019-01-25T07:30:17.190Z,30.72
2019-01-25T07:32:45.736Z,34.38
2019-01-25T07:35:14.267Z,32.40
2019-01-25T07:37:42.614Z,31.62
2019-01-25T07:40:11.593Z,30.82
2019-01-25T07:42:40.081Z,31.55
2019-01-25T07:45:12.777Z,32.98
2019-01-25T07:47:41.166Z,32.67
2019-01-25T07:50:12.829Z,28.52
2019-01-25T07:52:41.363Z,31.87
2019-01-25T07:55:13.276Z,30.37
2019-01-25T07:57:41.678Z,33.45
2019-01-25T08:00:15.056Z,29.95
2019-01-25T08:02:43.498Z,29.52
2019-01-25T08:05:11.982Z,28.40
2019-01-25T08:07:40.457Z,32.93
2019-01-25T08:10:15.406Z,31.87
2019-01-25T08:12:43.899Z,33.48
2019-01-25T08:15:23.599Z,30.48
2019-01-25T08:17:52.002Z,34.83
2019-01-25T08:20:20.397Z,28.55
2019-01-25T08:22:48.719Z,28.47
2019-01-25T08:25:17.646Z,30.10
2019-01-25T08:27:46.072Z,32.38
2019-01-25T08:30:23.149Z,32.23
2019-01-25T08:32:51.861Z,30.60
2019-01-25T08:35:20.477Z,30.50
2019-01-25T08:37:48.973Z,30.43
2019-01-25T08:40:18.054Z,29.55
2019-01-25T08:42:46.445Z,26.27
2019-01-25T08:45:18.800Z,30.17
2019-01-25T08:47:47.393Z,29.30
2019-01-25T08:50:19.051Z,27.75
2019-01-25T08:52:47.654Z,25.87
2019-01-25T08:55:16.372Z,27.30
2019-01-25T08:57:44.783Z,26.73
2019-01-25T09:00:15.978Z,27.42
2019-01-25T09:02:44.367Z,28.77
2019-01-25T09:05:13.045Z,26.65
2019-01-25T09:07:41.458Z,29.00
2019-01-25T09:10:15.245Z,30.73
2019-01-25T09:12:43.562Z,28.45
2019-01-25T09:15:14.568Z,27.87
2019-01-25T09:17:42.955Z,28.00
2019-01-25T09:20:17.070Z,27.70
2019-01-25T09:22:45.488Z,29.30
2019-01-25T09:25:13.871Z,26.85
2019-01-25T09:27:42.225Z,26.15
2019-01-25T09:30:19.338Z,24.70
2019-01-25T09:32:47.734Z,26.95
2019-01-25T09:35:16.629Z,25.50
2019-01-25T09:37:44.968Z,24.65
2019-01-25T09:40:19.430Z,23.97
2019-01-25T09:42:47.759Z,26.10
2019-01-25T09:45:16.121Z,25.17
2019-01-25T09:47:44.461Z,25.27
2019-01-25T09:50:15.947Z,23.93
2019-01-25T09:52:44.349Z,26.07
2019-01-25T09:55:17.905Z,26.97
2019-01-25T09:57:46.463Z,23.43
2019-01-25T10:00:24.306Z,26.50
2019-01-25T10:02:52.657Z,30.27
2019-01-25T10:05:20.985Z,26.90
2019-01-25T10:07:49.404Z,25.93
2019-01-25T10:10:17.815Z,29.43
2019-01-25T10:12:46.199Z,26.10
2019-01-25T10:15:17.678Z,27.00
2019-01-25T10:17:46.067Z,27.00
2019-01-25T10:20:14.467Z,30.03
2019-01-25T10:22:42.855Z,23.73
2019-01-25T10:25:11.475Z,24.43
2019-01-25T10:27:39.825Z,24.90
2019-01-25T10:30:17.147Z,26.43
2019-01-25T10:32:45.516Z,24.80
2019-01-25T10:35:13.865Z,24.93
2019-01-25T10:37:42.249Z,24.90
2019-01-25T10:40:13.754Z,23.20
2019-01-25T10:42:45.499Z,21.67
2019-01-25T10:45:15.829Z,28.13
2019-01-25T10:47:44.249Z,27.07
2019-01-25T10:50:12.647Z,24.07
2019-01-25T10:52:41.029Z,24.77
2019-01-25T10:55:11.195Z,24.90
2019-01-25T10:57:39.659Z,24.53
2019-01-25T11:00:11.325Z,22.27
2019-01-25T11:02:39.755Z,23.73
2019-01-25T11:05:11.230Z,24.80
2019-01-25T11:07:39.637Z,21.77
2019-01-25T11:10:09.143Z,20.57
2019-01-25T11:12:37.653Z,20.67
2019-01-25T11:15:11.901Z,19.77
2019-01-25T11:17:40.290Z,18.30
2019-01-25T11:20:17.703Z,20.27
2019-01-25T11:22:46.107Z,21.57
2019-01-25T11:25:20.469Z,21.47
2019-01-25T11:27:48.881Z,22.40
2019-01-25T11:30:17.691Z,19.42
2019-01-25T11:32:46.121Z,18.45
2019-01-25T11:35:14.683Z,19.73
2019-01-25T11:37:43.041Z,21.50
2019-01-25T11:40:26.297Z,19.57
2019-01-25T11:42:54.723Z,23.02
2019-01-25T11:45:23.116Z,21.17
2019-01-25T11:47:51.600Z,19.30
2019-01-25T11:50:21.026Z,22.20
2019-01-25T11:52:49.351Z,18.87
2019-01-25T11:55:18.715Z,20.88
2019-01-25T11:57:47.057Z,22.80
2019-01-25T12:00:23.715Z,23.35
2019-01-25T12:02:52.311Z,22.90
2019-01-25T12:05:22.501Z,22.62
2019-01-25T12:07:50.966Z,20.97
2019-01-25T12:10:22.041Z,21.00
2019-01-25T12:12:50.421Z,20.73
2019-01-25T12:15:21.851Z,23.50
2019-01-25T12:17:50.208Z,19.33
2019-01-25T12:20:23.810Z,21.82
2019-01-25T12:22:52.308Z,20.37
2019-01-25T12:25:20.691Z,19.60
2019-01-25T12:27:49.071Z,18.82
2019-01-25T12:30:23.036Z,18.50
2019-01-25T12:32:51.429Z,20.60
2019-01-25T12:35:19.899Z,19.17
2019-01-25T12:37:48.277Z,21.17
2019-01-25T12:40:18.462Z,17.70
2019-01-25T12:42:46.769Z,18.60
2019-01-25T12:45:28.929Z,18.07
2019-01-25T12:47:57.306Z,18.07
2019-01-25T12:50:41.057Z,18.23
2019-01-25T12:53:11.013Z,18.70
2019-01-25T12:55:39.387Z,20.00
2019-01-25T12:58:07.777Z,17.60
2019-01-25T13:00:36.535Z,18.32
2019-01-25T13:03:05.202Z,17.80
2019-01-25T13:05:33.587Z,17.73
2019-01-25T13:08:01.989Z,17.27
2019-01-25T13:10:30.420Z,17.17
2019-01-25T13:12:58.818Z,17.40
2019-01-25T13:15:27.204Z,16.80
2019-01-25T13:17:55.563Z,16.03
2019-01-25T13:20:31.339Z,18.75
2019-01-25T13:22:59.732Z,17.30
2019-01-25T13:25:28.260Z,17.40
2019-01-25T13:27:58.376Z,18.67
2019-01-25T13:30:30.901Z,20.35
2019-01-25T13:32:59.300Z,19.15
2019-01-25T13:35:27.706Z,14.98
2019-01-25T13:37:56.163Z,17.63
2019-01-25T13:40:26.102Z,17.30
2019-01-25T13:42:54.478Z,17.67
2019-01-25T13:45:23.378Z,18.02
2019-01-25T13:47:51.769Z,13.83
2019-01-25T13:50:28.750Z,18.50
2019-01-25T13:52:57.053Z,22.73
2019-01-25T13:55:25.371Z,22.30
2019-01-25T13:57:53.759Z,22.32
2019-01-25T14:00:30.339Z,18.80
2019-01-25T14:02:58.712Z,20.08
2019-01-25T14:05:27.185Z,20.70
2019-01-25T14:07:55.640Z,16.60
2019-01-25T14:10:26.811Z,19.20
2019-01-25T14:12:55.200Z,20.35
2019-01-25T14:15:23.588Z,19.60
2019-01-25T14:17:51.993Z,18.12
2019-01-25T14:20:23.325Z,17.87
2019-01-25T14:22:52.086Z,16.97
2019-01-25T14:25:20.533Z,18.90
2019-01-25T14:27:48.930Z,19.67
2019-01-25T14:30:26.059Z,18.57
2019-01-25T14:32:54.467Z,20.13
2019-01-25T14:35:22.994Z,18.07
2019-01-25T14:37:52.477Z,17.20
2019-01-25T14:40:21.252Z,18.47
2019-01-25T14:42:49.621Z,16.60
2019-01-25T14:45:19.615Z,18.17
2019-01-25T14:47:48.122Z,17.10
2019-01-25T14:50:22.103Z,19.17
2019-01-25T14:52:50.511Z,17.93
2019-01-25T14:55:18.926Z,19.60
2019-01-25T14:57:47.308Z,20.50
2019-01-25T15:00:15.938Z,18.50
2019-01-25T15:02:44.431Z,17.30
2019-01-25T15:05:15.859Z,17.43
2019-01-25T15:07:44.355Z,19.03
2019-01-25T15:10:15.183Z,17.37
2019-01-25T15:12:43.635Z,16.67
2019-01-25T15:15:13.547Z,16.45
2019-01-25T15:17:41.868Z,16.60
2019-01-25T15:20:13.319Z,16.97
2019-01-25T15:22:41.707Z,16.40
2019-01-25T15:25:10.115Z,17.57
2019-01-25T15:27:38.572Z,15.83
2019-01-25T15:30:15.430Z,16.63
2019-01-25T15:32:43.863Z,17.40
2019-01-25T15:35:13.747Z,16.73
2019-01-25T15:37:42.140Z,20.20
2019-01-25T15:40:14.594Z,18.30
2019-01-25T15:42:42.995Z,19.37
2019-01-25T15:45:16.478Z,19.80
2019-01-25T15:47:44.937Z,19.37
2019-01-25T15:50:16.486Z,17.95
2019-01-25T15:52:44.942Z,18.62
2019-01-25T15:55:13.324Z,19.87
2019-01-25T15:57:41.775Z,19.00
2019-01-25T16:00:12.923Z,18.67
2019-01-25T16:02:41.301Z,18.17
2019-01-25T16:05:11.740Z,20.30
2019-01-25T16:07:40.125Z,22.07
2019-01-25T16:10:14.095Z,16.65
2019-01-25T16:12:42.509Z,18.15
2019-01-25T16:15:19.834Z,17.83
2019-01-25T16:17:48.225Z,17.27
2019-01-25T16:20:18.269Z,19.70
2019-01-25T16:22:47.484Z,17.93
2019-01-25T16:25:18.582Z,17.00
2019-01-25T16:27:46.957Z,16.10
2019-01-25T16:30:18.157Z,13.47
2019-01-25T16:32:46.547Z,14.40
2019-01-25T16:35:15.183Z,16.33
2019-01-25T16:37:43.584Z,15.30
2019-01-25T16:40:23.374Z,15.03
2019-01-25T16:42:51.751Z,16.63
2019-01-25T16:45:22.984Z,16.40
2019-01-25T16:47:51.421Z,16.37
2019-01-25T16:50:23.878Z,13.90
2019-01-25T16:52:49.869Z,16.23
2019-01-25T16:55:18.256Z,13.00
2019-01-25T16:57:46.726Z,14.38
2019-01-25T17:00:35.920Z,15.10
2019-01-25T17:03:04.379Z,17.75
2019-01-25T17:05:32.769Z,14.57
2019-01-25T17:08:01.219Z,16.70
2019-01-25T17:10:29.636Z,17.62
2019-01-25T17:12:58.050Z,15.65
2019-01-25T17:15:26.763Z,13.70
2019-01-25T17:17:55.229Z,16.67
2019-01-25T17:20:27.767Z,16.53
2019-01-25T17:22:56.257Z,18.03
2019-01-25T17:25:24.670Z,16.63
2019-01-25T17:27:53.063Z,16.33
2019-01-25T17:30:26.587Z,14.73
2019-01-25T17:32:56.501Z,14.83
2019-01-25T17:35:24.906Z,15.00
2019-01-25T17:37:53.316Z,17.90
2019-01-25T17:40:24.425Z,19.87
2019-01-25T17:42:52.836Z,17.87
2019-01-25T17:45:21.184Z,16.97
2019-01-25T17:47:49.756Z,17.95
2019-01-25T17:50:18.200Z,17.40
2019-01-25T17:52:46.739Z,18.30
2019-01-25T17:55:16.458Z,17.27
2019-01-25T17:57:47.350Z,18.37
2019-01-25T18:00:25.501Z,18.23
2019-01-25T18:02:53.911Z,19.25
2019-01-25T18:05:22.289Z,19.13
2019-01-25T18:07:50.675Z,18.87
2019-01-25T18:10:21.285Z,19.20
2019-01-25T18:12:49.642Z,20.05
2019-01-25T18:15:18.673Z,20.60
2019-01-25T18:17:47.058Z,19.98
2019-01-25T18:20:17.375Z,19.75
2019-01-25T18:22:45.836Z,18.65
2019-01-25T18:25:20.318Z,19.70
2019-01-25T18:27:51.962Z,21.30
2019-01-25T18:30:30.034Z,19.62
2019-01-25T18:32:58.411Z,21.20
2019-01-25T18:35:26.822Z,21.47
2019-01-25T18:37:56.202Z,20.87
2019-01-25T18:40:24.543Z,18.47
2019-01-25T18:42:52.894Z,19.57
2019-01-25T18:45:21.392Z,19.60
2019-01-25T18:47:49.678Z,19.97
2019-01-25T18:50:18.142Z,21.80
2019-01-25T18:52:46.509Z,21.42
2019-01-25T18:55:18.058Z,18.97
2019-01-25T18:57:46.436Z,17.70
2019-01-25T19:00:19.566Z,21.67
2019-01-25T19:02:48.068Z,24.03
2019-01-25T19:05:16.440Z,22.30
2019-01-25T19:07:44.820Z,22.30
2019-01-25T19:10:16.527Z,19.27
2019-01-25T19:12:44.910Z,22.95
2019-01-25T19:15:16.674Z,24.47
2019-01-25T19:17:45.003Z,23.57
2019-01-25T19:20:14.148Z,20.67
2019-01-25T19:22:42.611Z,22.90
2019-01-25T19:25:11.554Z,21.73
2019-01-25T19:27:39.959Z,24.90
2019-01-25T19:30:14.198Z,21.97
2019-01-25T19:32:42.601Z,21.07
2019-01-25T19:35:12.466Z,22.43
2019-01-25T19:37:40.910Z,23.70
2019-01-25T19:40:18.271Z,22.15
2019-01-25T19:42:46.669Z,21.23
2019-01-25T19:45:15.125Z,18.73
2019-01-25T19:47:43.502Z,19.10
2019-01-25T19:50:15.157Z,20.10
2019-01-25T19:52:43.551Z,21.50
2019-01-25T19:55:14.978Z,20.43
2019-01-25T19:57:43.395Z,21.07
2019-01-25T20:00:20.519Z,21.90
2019-01-25T20:02:48.841Z,23.30
2019-01-25T20:05:22.664Z,22.90
2019-01-25T20:07:51.065Z,22.63
2019-01-25T20:10:20.344Z,23.40
2019-01-25T20:12:50.659Z,22.23
2019-01-25T20:15:21.752Z,19.57
2019-01-25T20:17:50.161Z,19.87
2019-01-25T20:20:21.811Z,21.67
2019-01-25T20:22:50.221Z,21.77
2019-01-25T20:25:18.946Z,20.63
2019-01-25T20:27:47.285Z,22.33
2019-01-25T20:30:19.070Z,19.30
2019-01-25T20:32:47.509Z,18.80
2019-01-25T20:35:21.523Z,19.87
2019-01-25T20:37:49.922Z,18.27
2019-01-25T20:40:18.253Z,17.97
2019-01-25T20:42:47.310Z,17.50
2019-01-25T20:45:18.715Z,21.23
2019-01-25T20:47:47.112Z,19.80
2019-01-25T20:50:24.128Z,22.60
2019-01-25T20:52:52.521Z,19.87
2019-01-25T20:55:20.808Z,19.67
2019-01-25T20:57:49.245Z,17.23
2019-01-25T21:00:23.599Z,17.50
2019-01-25T21:02:52.012Z,17.90
2019-01-25T21:05:20.435Z,18.03
2019-01-25T21:07:48.775Z,19.30
2019-01-25T21:10:22.114Z,16.90
2019-01-25T21:12:50.513Z,19.07
2019-01-25T21:15:21.096Z,18.33
2019-01-25T21:17:49.521Z,18.90
2019-01-25T21:20:20.413Z,19.13
2019-01-25T21:22:48.841Z,20.50
2019-01-25T21:25:17.242Z,18.33
2019-01-25T21:27:45.653Z,18.13
2019-01-25T21:30:19.748Z,15.63
2019-01-25T21:32:48.144Z,18.87
2019-01-25T21:35:16.554Z,17.97
2019-01-25T21:37:45.041Z,18.10
2019-01-25T21:40:16.329Z,19.43
2019-01-25T21:42:44.696Z,17.83
2019-01-25T21:45:15.820Z,18.03
2019-01-25T21:47:44.150Z,19.37
2019-01-25T21:50:16.125Z,20.43
2019-01-25T21:52:44.532Z,16.50
2019-01-25T21:55:15.094Z,19.07
2019-01-25T21:57:43.495Z,16.00
2019-01-25T22:00:23.365Z,17.60
2019-01-25T22:02:51.684Z,17.00
2019-01-25T22:05:20.360Z,16.60
2019-01-25T22:07:48.648Z,18.73
2019-01-25T22:10:19.873Z,18.30
2019-01-25T22:12:48.242Z,18.57
2019-01-25T22:15:18.308Z,18.87
2019-01-25T22:17:46.687Z,16.30
2019-01-25T22:20:18.081Z,14.50
2019-01-25T22:22:46.760Z,14.20
2019-01-25T22:25:15.267Z,15.80
2019-01-25T22:27:45.030Z,15.20
2019-01-25T22:30:18.861Z,16.57
2019-01-25T22:32:47.277Z,14.27
2019-01-25T22:35:15.606Z,16.50
2019-01-25T22:37:44.139Z,14.90
2019-01-25T22:40:15.254Z,15.43
2019-01-25T22:42:43.639Z,14.43
2019-01-25T22:45:14.642Z,13.90
2019-01-25T22:47:43.058Z,14.40
2019-01-25T22:50:14.816Z,14.33
2019-01-25T22:52:43.334Z,14.60
2019-01-25T22:55:14.367Z,12.17
2019-01-25T22:57:42.786Z,12.47
2019-01-25T23:00:46.090Z,12.60
2019-01-25T23:03:16.476Z,10.60
2019-01-25T23:06:17.008Z,13.40
2019-01-25T23:08:45.421Z,14.27
2019-01-25T23:11:13.844Z,10.83
2019-01-25T23:13:42.241Z,13.50
2019-01-25T23:16:10.618Z,12.50
2019-01-25T23:18:39.055Z,13.47
2019-01-25T23:21:07.442Z,13.10
2019-01-25T23:23:35.860Z,13.73
2019-01-25T23:26:04.244Z,13.23
2019-01-25T23:28:32.746Z,12.27
2019-01-25T23:31:01.140Z,12.10
2019-01-25T23:33:29.470Z,14.10
2019-01-25T23:35:57.881Z,14.23
2019-01-25T23:38:26.261Z,13.77
2019-01-25T23:40:54.703Z,13.27
2019-01-25T23:43:23.064Z,12.13
2019-01-25T23:45:51.449Z,12.53
2019-01-25T23:48:19.840Z,12.27
2019-01-25T23:50:48.391Z,12.50
2019-01-25T23:53:16.699Z,11.63
2019-01-25T23:55:45.141Z,11.53
2019-01-25T23:58:13.509Z,12.17
